Time;durP1;ratioP1;P1;durP2;ratioP2;P2;SDS_P1;SDS_P2;PMS_P1;PMS_P2;Temp;Humidity;BMP_temperature;BMP_pressure;BME280_temperature;BME280_humidity;BME280_pressure;Samples;Min_cycle;Max_cycle;Signal;HPM_P1;HPM_P2
2022/04/02 00:01:49;;;;;;;17.00;12.45;;;2.50;82.70;;;;;;4973731;28;20034;-66
2022/04/02 00:04:15;;;;;;;17.85;13.40;;;2.50;82.60;;;;;;4979102;28;20034;-66
2022/04/02 00:06:41;;;;;;;18.20;13.25;;;2.40;82.60;;;;;;4959832;28;20035;-66
2022/04/02 00:09:06;;;;;;;18.85;13.75;;;2.50;82.50;;;;;;4964923;28;20034;-65
2022/04/02 00:11:32;;;;;;;20.25;14.32;;;2.50;82.50;;;;;;4980036;28;20825;-65
2022/04/02 00:14:01;;;;;;;20.48;14.95;;;2.50;82.40;;;;;;4964749;28;20113;-65
2022/04/02 00:16:27;;;;;;;19.92;14.27;;;2.50;82.20;;;;;;4951503;28;20659;-66
2022/04/02 00:18:52;;;;;;;20.75;14.85;;;2.50;82.00;;;;;;4973973;28;20042;-65
2022/04/02 00:21:19;;;;;;;21.42;14.90;;;2.50;81.70;;;;;;4966561;28;20034;-66
2022/04/02 00:23:44;;;;;;;19.92;14.15;;;2.50;81.70;;;;;;4956109;28;20057;-65
2022/04/02 00:26:13;;;;;;;19.33;14.07;;;2.50;81.80;;;;;;4969221;28;20746;-65
2022/04/02 00:28:40;;;;;;;19.48;14.10;;;2.50;81.70;;;;;;4974120;28;20062;-66
2022/04/02 00:31:08;;;;;;;19.73;14.80;;;2.50;81.80;;;;;;4956522;28;20149;-66
2022/04/02 00:33:34;;;;;;;19.35;13.95;;;2.50;81.90;;;;;;4963745;28;20035;-66
2022/04/02 00:36:00;;;;;;;19.23;14.25;;;2.50;82.00;;;;;;4973064;28;20086;-67
2022/04/02 00:38:26;;;;;;;19.92;14.70;;;2.50;81.80;;;;;;4969733;28;20034;-65
2022/04/02 00:40:53;;;;;;;20.25;13.82;;;2.50;81.90;;;;;;4969237;28;20153;-66
2022/04/02 00:43:29;;;;;;;19.05;14.52;;;2.50;81.80;;;;;;4954404;28;20126;-65
2022/04/02 00:46:10;;;;;;;20.63;14.50;;;2.50;81.60;;;;;;4966795;28;20507;-66
2022/04/02 00:48:36;;;;;;;20.52;14.68;;;2.50;81.60;;;;;;4974782;28;20767;-65
2022/04/02 00:51:05;;;;;;;20.60;14.63;;;2.50;81.60;;;;;;4974480;28;20068;-67
2022/04/02 00:53:33;;;;;;;18.42;13.82;;;2.50;81.50;;;;;;4964956;28;20047;-65
2022/04/02 00:56:02;;;;;;;19.90;14.52;;;2.50;81.60;;;;;;4955459;28;20463;-65
2022/04/02 00:58:28;;;;;;;20.02;14.82;;;2.50;81.60;;;;;;4972353;28;20707;-65
2022/04/02 01:00:54;;;;;;;18.25;13.82;;;2.50;81.60;;;;;;4980803;28;20023;-67
2022/04/02 01:03:20;;;;;;;19.33;14.82;;;2.50;81.60;;;;;;4961008;28;20031;-65
2022/04/02 01:05:47;;;;;;;18.88;14.50;;;2.50;81.70;;;;;;4975791;28;20639;-65
2022/04/02 01:08:12;;;;;;;17.52;13.35;;;2.50;81.40;;;;;;4974226;28;20113;-66
2022/04/02 01:10:39;;;;;;;19.05;14.10;;;2.40;81.30;;;;;;4974925;28;20034;-65
2022/04/02 01:13:05;;;;;;;17.70;13.63;;;2.50;81.40;;;;;;4977878;28;20446;-68
2022/04/02 01:15:31;;;;;;;18.38;13.55;;;2.40;81.40;;;;;;4966391;28;20384;-66
2022/04/02 01:17:57;;;;;;;16.67;13.02;;;2.40;81.50;;;;;;4954950;28;20098;-65
2022/04/02 01:20:25;;;;;;;17.23;13.38;;;2.40;81.60;;;;;;4968606;28;20477;-66
2022/04/02 01:22:51;;;;;;;16.98;13.07;;;2.50;81.80;;;;;;4970169;28;20042;-67
2022/04/02 01:25:16;;;;;;;17.42;13.20;;;2.40;81.50;;;;;;4952842;28;20043;-64
2022/04/02 01:27:43;;;;;;;18.75;14.27;;;2.40;81.40;;;;;;4968895;28;20063;-65
2022/04/02 01:30:09;;;;;;;18.25;13.35;;;2.40;81.40;;;;;;4977350;28;20034;-65
2022/04/02 01:32:35;;;;;;;18.33;13.77;;;2.50;81.50;;;;;;4959562;28;20035;-66
2022/04/02 01:35:01;;;;;;;16.10;12.30;;;2.50;81.60;;;;;;4960963;28;20411;-65
2022/04/02 01:37:26;;;;;;;17.85;13.10;;;2.40;81.60;;;;;;4974806;28;20042;-66
2022/04/02 01:39:52;;;;;;;16.42;12.43;;;2.50;82.00;;;;;;4963589;28;20035;-66
2022/04/02 01:42:20;;;;;;;17.52;12.98;;;2.60;81.90;;;;;;4952895;28;20399;-67
2022/04/02 01:44:51;;;;;;;17.58;13.30;;;2.50;81.90;;;;;;4974916;28;20034;-66
2022/04/02 01:47:18;;;;;;;16.75;13.27;;;2.60;81.90;;;;;;4966589;28;20153;-67
2022/04/02 01:49:45;;;;;;;17.02;12.80;;;2.60;81.70;;;;;;4953523;28;20031;-66
2022/04/02 01:52:16;;;;;;;16.63;12.82;;;2.70;81.70;;;;;;4971334;28;20054;-65
2022/04/02 01:54:42;;;;;;;16.75;13.20;;;2.70;81.80;;;;;;4977747;28;20050;-67
2022/04/02 01:57:08;;;;;;;15.68;11.88;;;2.70;81.80;;;;;;4974532;28;20042;-66
2022/04/02 01:59:33;;;;;;;15.73;12.25;;;2.70;81.60;;;;;;4964046;28;20043;-65
2022/04/02 02:02:00;;;;;;;17.15;12.80;;;2.80;81.40;;;;;;4955589;28;20502;-66
2022/04/02 02:04:26;;;;;;;15.15;11.95;;;2.80;81.40;;;;;;4970907;28;20324;-64
2022/04/02 02:06:52;;;;;;;14.98;11.50;;;2.80;81.40;;;;;;4970447;28;20035;-66
2022/04/02 02:09:18;;;;;;;16.55;12.63;;;2.80;81.40;;;;;;4956124;28;20043;-66
2022/04/02 02:11:44;;;;;;;14.98;11.65;;;2.80;81.40;;;;;;4958471;28;20056;-65
2022/04/02 02:14:09;;;;;;;16.35;12.50;;;2.80;81.30;;;;;;4957405;28;20138;-65
2022/04/02 02:16:35;;;;;;;14.65;11.70;;;2.80;81.40;;;;;;4977158;28;20144;-65
2022/04/02 02:19:00;;;;;;;14.70;11.55;;;2.80;81.40;;;;;;4974499;28;20039;-66
2022/04/02 02:21:26;;;;;;;16.13;12.60;;;2.80;81.40;;;;;;4958006;28;20490;-66
2022/04/02 02:23:52;;;;;;;15.40;12.05;;;2.80;81.50;;;;;;4970880;28;20454;-66
2022/04/02 02:26:17;;;;;;;15.45;11.85;;;2.90;81.60;;;;;;4976996;28;20053;-65
2022/04/02 02:28:43;;;;;;;14.32;11.43;;;2.80;81.50;;;;;;4957716;28;20952;-66
2022/04/02 02:31:09;;;;;;;15.07;11.77;;;2.80;81.60;;;;;;4963530;28;20039;-67
2022/04/02 02:36:19;;;;;;;15.82;11.70;;;2.80;81.60;;;;;;4977241;28;20092;-66
2022/04/02 02:38:45;;;;;;;14.90;11.82;;;2.80;81.60;;;;;;4978137;28;20453;-66
2022/04/02 02:41:11;;;;;;;14.73;11.80;;;2.80;81.60;;;;;;4969702;28;20027;-66
2022/04/02 02:43:37;;;;;;;15.85;12.80;;;2.90;81.70;;;;;;4967123;28;20066;-66
2022/04/02 02:46:03;;;;;;;14.52;11.40;;;2.80;81.60;;;;;;4975616;28;20038;-65
2022/04/02 02:48:29;;;;;;;15.35;12.10;;;2.90;81.50;;;;;;4960606;28;20046;-65
2022/04/02 02:50:55;;;;;;;14.98;11.82;;;2.80;81.60;;;;;;4960108;28;20034;-65
2022/04/02 02:53:20;;;;;;;14.00;11.68;;;2.90;81.60;;;;;;4976520;28;20068;-67
2022/04/02 02:55:48;;;;;;;16.05;12.07;;;2.90;81.80;;;;;;4964869;28;20417;-66
2022/04/02 02:58:14;;;;;;;15.68;12.15;;;2.80;81.60;;;;;;4955824;28;20077;-66
2022/04/02 03:00:43;;;;;;;15.10;11.90;;;2.90;81.60;;;;;;4973604;28;20035;-66
2022/04/02 03:03:09;;;;;;;15.65;11.65;;;2.90;81.40;;;;;;4976380;28;20508;-66
2022/04/02 03:05:35;;;;;;;15.30;11.45;;;2.90;81.40;;;;;;4975430;28;20042;-66
2022/04/02 03:08:02;;;;;;;17.85;13.77;;;2.90;81.40;;;;;;4964911;28;20039;-63
2022/04/02 03:10:28;;;;;;;24.33;13.52;;;2.90;81.40;;;;;;4956858;28;20118;-65
2022/04/02 03:12:55;;;;;;;19.70;13.80;;;2.80;81.30;;;;;;4961443;28;20426;-65
2022/04/02 03:15:22;;;;;;;21.15;13.45;;;2.80;81.30;;;;;;4967239;28;20683;-65
2022/04/02 03:17:48;;;;;;;18.33;13.20;;;2.70;81.40;;;;;;4983011;28;20082;-66
2022/04/02 03:20:17;;;;;;;19.10;13.25;;;2.70;81.40;;;;;;4960470;28;20058;-66
2022/04/02 03:22:45;;;;;;;21.38;13.38;;;2.60;81.60;;;;;;4957029;28;20622;-66
2022/04/02 03:25:15;;;;;;;16.08;12.13;;;2.60;82.00;;;;;;4987146;28;20068;-63
2022/04/02 03:27:46;;;;;;;17.25;12.38;;;2.50;82.00;;;;;;4964575;28;20157;-65
2022/04/02 03:30:13;;;;;;;18.85;13.45;;;2.50;82.10;;;;;;4954682;28;20129;-65
2022/04/02 03:32:40;;;;;;;15.55;11.60;;;2.50;82.20;;;;;;4973406;28;20038;-65
2022/04/02 03:35:06;;;;;;;17.75;12.52;;;2.50;82.10;;;;;;4970701;28;20031;-66
2022/04/02 03:37:37;;;;;;;19.65;13.20;;;2.50;82.10;;;;;;4953673;28;20077;-65
2022/04/02 03:40:09;;;;;;;17.58;12.95;;;2.50;82.30;;;;;;4967661;28;20072;-63
2022/04/02 03:42:38;;;;;;;18.65;12.75;;;2.50;82.30;;;;;;4973362;28;20033;-66
2022/04/02 03:45:06;;;;;;;21.10;13.48;;;2.50;82.30;;;;;;4954069;28;20031;-65
2022/04/02 03:47:31;;;;;;;17.65;12.00;;;2.50;82.30;;;;;;4978585;28;20110;-66
2022/04/02 03:49:57;;;;;;;17.33;12.80;;;2.50;82.30;;;;;;4978234;28;20034;-65
2022/04/02 03:52:24;;;;;;;21.98;13.77;;;2.50;82.40;;;;;;4958865;28;20620;-65
2022/04/02 03:54:49;;;;;;;23.33;14.82;;;2.50;82.30;;;;;;4974799;28;20046;-65
2022/04/02 03:57:15;;;;;;;20.42;13.88;;;2.50;82.30;;;;;;4953129;28;20042;-63
2022/04/02 03:59:42;;;;;;;25.30;14.73;;;2.50;82.20;;;;;;4955628;28;20459;-65
2022/04/02 04:02:08;;;;;;;21.52;13.50;;;2.50;82.30;;;;;;4955158;28;20494;-65
2022/04/02 04:04:38;;;;;;;19.83;13.38;;;2.50;82.20;;;;;;4955602;28;20409;-65
2022/04/02 04:07:05;;;;;;;19.40;14.00;;;2.50;82.30;;;;;;4954039;28;20497;-64
2022/04/02 04:09:31;;;;;;;20.67;14.13;;;2.50;82.50;;;;;;4956741;28;20114;-65
2022/04/02 04:11:57;;;;;;;21.92;14.32;;;2.50;82.60;;;;;;4968465;28;20446;-65
2022/04/02 04:14:24;;;;;;;20.30;14.02;;;2.50;82.60;;;;;;4974736;28;20044;-65
2022/04/02 04:16:50;;;;;;;20.45;14.23;;;2.50;82.60;;;;;;4974192;28;20069;-65
2022/04/02 04:19:16;;;;;;;17.48;12.85;;;2.50;82.80;;;;;;4966679;28;20066;-62
2022/04/02 04:21:43;;;;;;;18.50;12.85;;;2.60;82.60;;;;;;4965113;28;20061;-65
2022/04/02 04:24:09;;;;;;;19.25;12.50;;;2.60;82.50;;;;;;4959746;28;20035;-64
2022/04/02 04:26:35;;;;;;;18.80;12.73;;;2.60;82.50;;;;;;4953583;28;20379;-64
2022/04/02 04:29:01;;;;;;;15.85;12.40;;;2.60;82.30;;;;;;4975647;28;20040;-65
2022/04/02 04:31:26;;;;;;;16.98;12.13;;;2.60;82.10;;;;;;4974279;28;20042;-65
2022/04/02 04:33:53;;;;;;;16.05;11.80;;;2.60;82.00;;;;;;4973861;28;20477;-65
2022/04/02 04:36:19;;;;;;;16.98;12.25;;;2.60;82.10;;;;;;4959132;28;20042;-66
2022/04/02 04:38:49;;;;;;;18.85;12.52;;;2.50;82.20;;;;;;4956757;28;20050;-64
2022/04/02 04:41:17;;;;;;;15.23;11.05;;;2.50;82.30;;;;;;4977276;28;20785;-64
2022/04/02 04:43:44;;;;;;;14.57;10.40;;;2.50;82.00;;;;;;4962677;28;20042;-64
2022/04/02 04:46:10;;;;;;;15.82;11.27;;;2.50;82.10;;;;;;4967385;28;20577;-64
2022/04/02 04:48:36;;;;;;;16.40;11.30;;;2.50;82.00;;;;;;4955496;28;20469;-64
2022/04/02 04:51:02;;;;;;;15.88;10.77;;;2.50;81.90;;;;;;4960507;28;20379;-64
2022/04/02 04:53:28;;;;;;;17.67;11.25;;;2.50;81.80;;;;;;4975667;28;20457;-64
2022/04/02 04:55:54;;;;;;;16.08;11.30;;;2.40;81.90;;;;;;4961414;28;20035;-64
2022/04/02 04:58:20;;;;;;;16.70;10.55;;;2.40;82.00;;;;;;4953766;28;20067;-65
2022/04/02 05:00:45;;;;;;;16.55;10.52;;;2.30;82.00;;;;;;4955270;28;20053;-64
2022/04/02 05:03:12;;;;;;;14.35;10.75;;;2.40;82.00;;;;;;4967443;28;20041;-65
2022/04/02 05:05:38;;;;;;;15.77;10.38;;;2.30;82.00;;;;;;4963920;28;20030;-65
2022/04/02 05:08:07;;;;;;;17.50;10.10;;;2.30;82.00;;;;;;4961880;28;20039;-64
2022/04/02 05:10:34;;;;;;;17.58;10.77;;;2.30;82.00;;;;;;4956686;28;20039;-64
2022/04/02 05:13:01;;;;;;;15.60;10.40;;;2.30;81.80;;;;;;4976228;28;20035;-66
2022/04/02 05:15:27;;;;;;;15.93;10.48;;;2.30;81.80;;;;;;4966148;28;20125;-64
2022/04/02 05:17:54;;;;;;;14.77;10.55;;;2.30;81.80;;;;;;4955919;28;20042;-64
2022/04/02 05:20:19;;;;;;;14.85;9.27;;;2.30;81.80;;;;;;4971689;28;20119;-65
2022/04/02 05:22:46;;;;;;;17.23;10.25;;;2.20;81.60;;;;;;4974395;28;20167;-64
2022/04/02 05:25:12;;;;;;;20.60;10.85;;;2.20;81.80;;;;;;4955453;28;20517;-64
2022/04/02 05:27:37;;;;;;;21.38;11.48;;;2.20;81.80;;;;;;4953425;28;20040;-63
2022/04/02 05:30:04;;;;;;;17.92;11.77;;;2.20;81.80;;;;;;4956175;28;20312;-63
2022/04/02 05:32:30;;;;;;;19.50;10.70;;;2.10;81.80;;;;;;4971689;28;20505;-65
2022/04/02 05:34:57;;;;;;;18.08;11.13;;;2.10;81.90;;;;;;4972596;28;20031;-64
2022/04/02 05:37:23;;;;;;;17.00;10.85;;;2.00;81.90;;;;;;4963079;28;20055;-63
2022/04/02 05:39:49;;;;;;;17.98;10.80;;;2.00;82.00;;;;;;4964605;28;20035;-64
2022/04/02 05:42:15;;;;;;;15.45;10.38;;;2.00;82.30;;;;;;4968934;28;20061;-65
2022/04/02 05:44:41;;;;;;;17.20;12.00;;;2.00;82.30;;;;;;4957754;28;20621;-62
2022/04/02 05:47:09;;;;;;;18.60;10.48;;;1.90;82.50;;;;;;4978611;28;20160;-64
2022/04/02 05:49:35;;;;;;;17.58;10.82;;;1.90;82.40;;;;;;4967342;28;20046;-64
2022/04/02 05:52:01;;;;;;;17.55;10.60;;;1.90;82.50;;;;;;4972818;28;20030;-64
2022/04/02 05:54:26;;;;;;;18.52;11.40;;;1.90;82.60;;;;;;4978951;28;20503;-64
2022/04/02 05:56:52;;;;;;;16.70;10.48;;;1.90;82.60;;;;;;4957809;28;20763;-64
2022/04/02 05:59:19;;;;;;;17.75;10.18;;;1.90;82.50;;;;;;4967077;28;20047;-62
2022/04/02 06:01:45;;;;;;;16.50;10.20;;;1.80;82.50;;;;;;4977577;28;20185;-61
2022/04/02 06:04:11;;;;;;;17.25;10.63;;;1.80;82.60;;;;;;4963986;28;20637;-63
2022/04/02 06:06:37;;;;;;;19.80;10.45;;;1.80;82.80;;;;;;4957625;28;20137;-64
2022/04/02 06:09:03;;;;;;;15.98;10.77;;;1.80;82.70;;;;;;4980823;28;20031;-62
2022/04/02 06:11:30;;;;;;;16.40;10.55;;;1.80;82.70;;;;;;4971171;28;20043;-65
2022/04/02 06:13:59;;;;;;;21.90;10.57;;;1.80;82.80;;;;;;4962554;28;20038;-64
2022/04/02 06:16:25;;;;;;;18.67;11.07;;;1.80;82.70;;;;;;4977651;28;20085;-63
2022/04/02 06:18:52;;;;;;;17.88;10.73;;;1.80;82.80;;;;;;4980854;28;20524;-62
2022/04/02 06:21:19;;;;;;;18.02;11.15;;;1.80;82.80;;;;;;4979605;28;20533;-62
2022/04/02 06:23:45;;;;;;;16.85;11.05;;;1.80;83.00;;;;;;4969083;28;20145;-63
2022/04/02 06:26:10;;;;;;;15.90;10.63;;;1.80;82.90;;;;;;4962600;28;20031;-63
2022/04/02 06:28:37;;;;;;;20.75;11.70;;;1.80;82.80;;;;;;4978031;28;20038;-63
2022/04/02 06:31:03;;;;;;;17.85;10.82;;;1.80;83.90;;;;;;4975923;28;20113;-62
2022/04/02 06:33:30;;;;;;;18.73;12.32;;;1.80;82.90;;;;;;4961686;28;20031;-65
2022/04/02 06:35:56;;;;;;;18.70;11.10;;;1.80;83.90;;;;;;4973837;28;20122;-65
2022/04/02 06:38:21;;;;;;;19.67;11.73;;;1.90;82.90;;;;;;4979581;28;20117;-65
2022/04/02 06:40:47;;;;;;;17.67;12.27;;;1.80;82.90;;;;;;4979166;28;20043;-64
2022/04/02 06:43:13;;;;;;;18.65;12.80;;;1.90;83.00;;;;;;4974965;28;20042;-62
2022/04/02 06:45:39;;;;;;;16.73;11.48;;;1.90;83.00;;;;;;4962325;28;20085;-64
2022/04/02 06:48:04;;;;;;;17.83;11.23;;;1.90;82.80;;;;;;4975262;28;20034;-63
2022/04/02 06:50:30;;;;;;;15.30;10.82;;;1.90;82.80;;;;;;4978785;28;20042;-63
2022/04/02 06:52:56;;;;;;;15.43;11.00;;;2.00;83.10;;;;;;4961680;28;20114;-63
2022/04/02 06:55:21;;;;;;;18.08;11.35;;;2.00;83.00;;;;;;4969001;28;20117;-63
2022/04/02 06:57:53;;;;;;;15.70;10.13;;;2.00;82.80;;;;;;4981044;28;20031;-63
2022/04/02 07:00:20;;;;;;;16.05;11.02;;;2.10;82.80;;;;;;4981106;28;20034;-62
2022/04/02 07:02:46;;;;;;;17.10;10.48;;;2.10;82.80;;;;;;4972374;28;20038;-64
2022/04/02 07:05:12;;;;;;;12.32;9.38;;;2.20;83.00;;;;;;4962112;28;20502;-63
2022/04/02 07:07:37;;;;;;;14.50;10.10;;;2.20;83.00;;;;;;4959729;28;20033;-63
2022/04/02 07:10:06;;;;;;;13.88;10.85;;;2.20;82.80;;;;;;4979116;28;20584;-64
2022/04/02 07:12:33;;;;;;;13.63;10.38;;;2.30;82.40;;;;;;4972983;28;20034;-63
2022/04/02 07:14:59;;;;;;;15.85;9.52;;;2.30;81.80;;;;;;4960348;28;20043;-63
2022/04/02 07:17:25;;;;;;;14.75;10.68;;;2.30;81.80;;;;;;4982438;28;20088;-64
2022/04/02 07:19:52;;;;;;;15.68;10.23;;;2.20;81.90;;;;;;4977302;28;20510;-62
2022/04/02 07:22:20;;;;;;;21.00;10.13;;;2.20;81.80;;;;;;4978389;28;20034;-62
2022/04/02 07:24:47;;;;;;;15.63;10.27;;;2.20;82.20;;;;;;4976939;28;20031;-61
2022/04/02 07:27:12;;;;;;;17.40;10.55;;;2.20;82.50;;;;;;4959638;28;20030;-62
2022/04/02 07:29:40;;;;;;;13.02;9.75;;;2.30;82.50;;;;;;4970937;28;20465;-61
2022/04/02 07:32:08;;;;;;;11.73;9.07;;;2.20;82.30;;;;;;4966855;28;20043;-63
2022/04/02 07:34:33;;;;;;;14.05;8.77;;;2.30;82.10;;;;;;4976696;28;20030;-63
2022/04/02 07:37:12;;;;;;;14.68;9.82;;;2.20;81.70;;;;;;4973039;28;20875;-63
2022/04/02 07:39:41;;;;;;;11.60;8.60;;;2.30;81.80;;;;;;4959774;28;20082;-62
2022/04/02 07:42:22;;;;;;;16.80;10.32;;;2.30;81.70;;;;;;4968151;28;20499;-63
2022/04/02 07:44:56;;;;;;;12.32;9.35;;;2.20;81.60;;;;;;4985321;28;20050;-61
2022/04/02 07:47:28;;;;;;;15.48;9.23;;;2.20;81.60;;;;;;4960611;28;20066;-64
2022/04/02 07:49:59;;;;;;;12.27;8.68;;;2.20;81.60;;;;;;4968036;28;20034;-61
2022/04/02 07:52:26;;;;;;;12.07;8.98;;;2.10;81.80;;;;;;4969982;28;20038;-62
2022/04/02 07:54:56;;;;;;;12.77;9.27;;;2.10;82.00;;;;;;4954728;28;20042;-63
2022/04/02 07:57:27;;;;;;;11.35;8.75;;;2.10;82.10;;;;;;4973127;28;20096;-62
2022/04/02 08:00:00;;;;;;;13.27;9.07;;;2.10;82.30;;;;;;4971902;28;22057;-63
2022/04/02 08:02:39;;;;;;;13.40;9.63;;;2.20;82.30;;;;;;4975480;28;20049;-62
2022/04/02 08:05:10;;;;;;;15.02;10.55;;;2.20;82.10;;;;;;4976460;28;20071;-60
2022/04/02 08:07:38;;;;;;;16.38;8.85;;;2.20;82.10;;;;;;4978244;28;20121;-63
2022/04/02 08:10:13;;;;;;;15.07;9.10;;;2.30;82.00;;;;;;4976994;28;20026;-65
2022/04/02 08:12:40;;;;;;;13.18;8.65;;;2.20;82.10;;;;;;4973369;28;20062;-64
2022/04/02 08:15:12;;;;;;;15.13;9.45;;;2.30;82.50;;;;;;4977468;28;20030;-62
2022/04/02 08:17:39;;;;;;;12.85;8.65;;;2.30;82.30;;;;;;4977842;28;20037;-62
2022/04/02 08:20:06;;;;;;;13.07;8.90;;;2.40;82.30;;;;;;4978645;28;20035;-62
2022/04/02 08:22:32;;;;;;;12.05;8.63;;;2.40;82.40;;;;;;4974840;28;20031;-63
2022/04/02 08:24:58;;;;;;;10.82;7.80;;;2.40;82.30;;;;;;4978125;28;20030;-63
2022/04/02 08:27:46;;;;;;;14.25;9.27;;;2.50;82.30;;;;;;4979071;28;20034;-63
2022/04/02 08:30:11;;;;;;;11.18;8.30;;;2.60;81.60;;;;;;4978542;28;20142;-62
2022/04/02 08:32:55;;;;;;;15.15;7.93;;;2.60;81.40;;;;;;4977811;28;20456;-62
2022/04/02 08:35:34;;;;;;;11.77;8.27;;;2.60;81.60;;;;;;4971847;28;20031;-63
2022/04/02 08:38:17;;;;;;;15.30;9.32;;;2.60;81.60;;;;;;4974743;28;20108;-63
2022/04/02 08:41:27;;;;;;;14.98;8.93;;;2.60;81.00;;;;;;4977032;28;20039;-62
2022/04/02 08:44:16;;;;;;;12.98;8.38;;;2.60;80.90;;;;;;4918712;28;20039;-62
2022/04/02 08:47:00;;;;;;;14.35;9.20;;;2.60;81.40;;;;;;4971959;28;20040;-62
2022/04/02 08:49:50;;;;;;;11.40;8.68;;;2.60;81.30;;;;;;4975401;28;20121;-64
2022/04/02 08:52:31;;;;;;;12.23;8.68;;;2.50;81.30;;;;;;4975229;28;20046;-63
2022/04/02 08:54:56;;;;;;;11.73;8.90;;;2.60;81.40;;;;;;4988614;28;20482;-62
2022/04/02 08:57:38;;;;;;;10.27;8.20;;;2.60;81.10;;;;;;4967841;28;20164;-62
2022/04/02 09:00:04;;;;;;;12.88;8.30;;;2.60;81.30;;;;;;4972625;28;20045;-63
2022/04/02 09:02:36;;;;;;;10.77;7.75;;;2.60;81.60;;;;;;4961365;28;20035;-61
2022/04/02 09:05:10;;;;;;;11.20;7.95;;;2.60;81.60;;;;;;4960466;28;20037;-58
2022/04/02 09:07:51;;;;;;;13.02;8.40;;;2.70;81.00;;;;;;4974149;28;20040;-63
2022/04/02 09:10:41;;;;;;;11.45;7.50;;;2.70;81.30;;;;;;4963091;28;20420;-62
2022/04/02 09:13:16;;;;;;;15.23;8.48;;;2.70;81.60;;;;;;4969817;28;20034;-63
2022/04/02 09:15:56;;;;;;;12.50;7.38;;;2.80;81.40;;;;;;4957380;28;20035;-64
2022/04/02 09:18:52;;;;;;;11.38;7.55;;;2.80;81.30;;;;;;4972858;28;20186;-65
2022/04/02 09:21:24;;;;;;;11.35;7.55;;;2.90;80.60;;;;;;4975579;28;20038;-63
2022/04/02 09:24:01;;;;;;;9.25;7.40;;;2.90;80.10;;;;;;4979238;28;20138;-63
2022/04/02 09:26:38;;;;;;;8.38;6.93;;;3.00;80.40;;;;;;4977626;28;21856;-63
2022/04/02 09:29:16;;;;;;;11.23;7.35;;;3.00;80.70;;;;;;4993433;28;20322;-63
2022/04/02 09:32:06;;;;;;;10.25;7.80;;;3.00;80.00;;;;;;4978308;28;20182;-62
2022/04/02 09:35:20;;;;;;;9.75;7.53;;;3.00;80.00;;;;;;4960187;28;20047;-65
2022/04/02 09:38:27;;;;;;;8.32;6.43;;;3.10;79.70;;;;;;4937578;28;20410;-64
2022/04/02 09:41:18;;;;;;;9.73;7.05;;;3.00;80.20;;;;;;4978795;28;20039;-64
2022/04/02 09:44:12;;;;;;;10.90;7.22;;;3.10;80.20;;;;;;4980258;28;20031;-63
2022/04/02 09:46:53;;;;;;;8.07;6.88;;;3.10;80.20;;;;;;4973979;28;20565;-60
2022/04/02 09:49:27;;;;;;;10.68;6.88;;;3.20;79.70;;;;;;4980427;28;20136;-62
2022/04/02 09:52:07;;;;;;;8.40;6.45;;;3.20;79.90;;;;;;4977845;28;20133;-62
2022/04/02 09:54:44;;;;;;;9.55;6.95;;;3.20;79.50;;;;;;4976107;28;20495;-65
2022/04/02 09:57:34;;;;;;;8.98;6.82;;;3.20;79.50;;;;;;4981847;28;20533;-62
2022/04/02 10:00:08;;;;;;;8.45;6.15;;;3.20;79.20;;;;;;4983432;28;20030;-62
2022/04/02 10:03:02;;;;;;;8.13;6.05;;;3.20;79.30;;;;;;4981361;28;20041;-59
2022/04/02 10:05:35;;;;;;;7.80;5.90;;;3.20;79.20;;;;;;4983202;28;20045;-63
2022/04/02 10:08:20;;;;;;;10.10;6.55;;;3.20;79.30;;;;;;4981762;28;20074;-62
2022/04/02 10:10:50;;;;;;;8.02;6.82;;;3.20;79.50;;;;;;4981217;28;20042;-62
2022/04/02 10:13:16;;;;;;;7.65;6.47;;;3.20;79.30;;;;;;4982136;28;20502;-65
2022/04/02 10:15:45;;;;;;;8.25;6.10;;;3.20;79.30;;;;;;4982381;28;20038;-63
2022/04/02 10:18:12;;;;;;;7.45;5.60;;;3.20;79.30;;;;;;4966108;28;20034;-63
2022/04/02 10:20:38;;;;;;;7.20;5.75;;;3.20;79.30;;;;;;4962730;28;20042;-63
2022/04/02 10:23:12;;;;;;;8.88;5.82;;;3.20;79.20;;;;;;4981244;28;20109;-65
2022/04/02 10:26:07;;;;;;;8.10;5.90;;;3.30;79.10;;;;;;4970017;28;20055;-65
2022/04/02 10:28:33;;;;;;;;;;;3.20;79.00;;;;;;4964143;28;20058;-64
2022/04/02 10:31:01;;;;;;;8.95;6.90;;;3.30;78.60;;;;;;4980867;28;19957;-64
2022/04/02 10:33:34;;;;;;;8.27;6.28;;;3.30;79.00;;;;;;4973161;28;20114;-63
2022/04/02 10:36:03;;;;;;;8.23;6.20;;;3.30;78.90;;;;;;4987845;28;20553;-64
2022/04/02 10:38:36;;;;;;;7.80;6.25;;;3.30;79.20;;;;;;4971063;28;20099;-64
2022/04/02 10:41:10;;;;;;;9.32;6.68;;;3.30;79.00;;;;;;4963234;28;20034;-63
2022/04/02 10:44:00;;;;;;;7.57;6.63;;;3.30;79.00;;;;;;4964219;28;20031;-64
2022/04/02 10:46:26;;;;;;;8.32;6.93;;;3.30;78.60;;;;;;4977847;28;20038;-64
2022/04/02 10:48:55;;;;;;;9.07;6.95;;;3.40;79.00;;;;;;4980966;28;20041;-64
2022/04/02 10:51:30;;;;;;;7.75;6.75;;;3.40;78.80;;;;;;4979382;28;20367;-65
2022/04/02 10:53:59;;;;;;;;;;;3.40;79.00;;;;;;4986261;28;20107;-64
2022/04/02 10:56:31;;;;;;;8.25;6.50;;;3.50;79.00;;;;;;4976778;28;19922;-64
2022/04/02 10:58:59;;;;;;;7.22;6.47;;;3.50;79.00;;;;;;4980947;28;20038;-64
2022/04/02 11:01:25;;;;;;;8.50;7.00;;;3.50;79.00;;;;;;4979891;28;20045;-67
2022/04/02 11:03:56;;;;;;;7.63;6.63;;;3.50;78.90;;;;;;4979991;28;20035;-65
2022/04/02 11:06:48;;;;;;;9.13;7.15;;;3.60;78.80;;;;;;4978951;28;20533;-64
2022/04/02 11:09:29;;;;;;;8.50;6.90;;;3.60;78.40;;;;;;4978950;28;20045;-64
2022/04/02 11:12:07;;;;;;;6.82;5.93;;;3.60;77.80;;;;;;4979368;28;20053;-65
2022/04/02 11:14:48;;;;;;;7.55;6.40;;;3.60;76.90;;;;;;4979044;28;20398;-65
2022/04/02 11:17:28;;;;;;;8.60;5.93;;;3.50;77.80;;;;;;4979424;28;20037;-65
2022/04/02 11:20:04;;;;;;;10.27;7.03;;;3.50;78.00;;;;;;4979160;28;20027;-64
2022/04/02 11:22:38;;;;;;;10.20;7.63;;;3.40;77.80;;;;;;4979014;28;20047;-63
2022/04/02 11:25:09;;;;;;;10.13;7.00;;;3.40;77.70;;;;;;4979472;28;20035;-64
2022/04/02 11:27:37;;;;;;;9.65;7.50;;;3.40;78.10;;;;;;4978647;28;20454;-64
2022/04/02 11:30:09;;;;;;;11.52;7.20;;;3.40;77.80;;;;;;4979904;28;20046;-64
2022/04/02 11:32:43;;;;;;;8.50;6.78;;;3.40;78.10;;;;;;4979306;28;20038;-64
2022/04/02 11:35:14;;;;;;;6.95;5.53;;;3.40;78.30;;;;;;4993342;28;20066;-64
2022/04/02 11:38:09;;;;;;;7.82;6.75;;;3.40;78.30;;;;;;4980238;28;20517;-64
2022/04/02 11:40:41;;;;;;;9.98;6.95;;;3.40;78.00;;;;;;4951905;28;20030;-64
2022/04/02 11:43:07;;;;;;;7.72;6.45;;;3.40;78.00;;;;;;4979487;28;20037;-64
2022/04/02 11:45:36;;;;;;;10.00;7.05;;;3.40;77.80;;;;;;4979545;28;20113;-64
2022/04/02 11:48:13;;;;;;;10.18;7.28;;;3.40;77.50;;;;;;4979207;28;20481;-64
2022/04/02 11:50:43;;;;;;;10.52;7.50;;;3.40;77.10;;;;;;4979201;28;20126;-64
2022/04/02 11:53:10;;;;;;;9.05;6.82;;;3.40;77.10;;;;;;4980396;28;20042;-65
2022/04/02 11:55:37;;;;;;;9.88;7.10;;;3.40;77.30;;;;;;4979500;28;20524;-64
2022/04/02 11:58:10;;;;;;;8.77;6.82;;;3.30;77.40;;;;;;4980008;28;20034;-64
2022/04/02 12:00:38;;;;;;;6.93;6.22;;;3.30;77.40;;;;;;4978556;28;20050;-64
2022/04/02 12:03:06;;;;;;;9.00;7.20;;;3.30;77.60;;;;;;4980076;28;20039;-64
2022/04/02 12:05:42;;;;;;;7.72;6.47;;;3.30;77.50;;;;;;4979587;28;20031;-64
2022/04/02 12:08:10;;;;;;;7.80;6.45;;;3.30;77.40;;;;;;4979994;28;20042;-65
2022/04/02 12:10:47;;;;;;;10.10;7.30;;;3.30;77.60;;;;;;4977601;28;20173;-65
2022/04/02 12:13:13;;;;;;;10.38;7.22;;;3.30;77.70;;;;;;4977537;28;20529;-65
2022/04/02 12:15:39;;;;;;;22.52;11.18;;;3.30;77.80;;;;;;4984059;28;20062;-65
2022/04/02 12:18:07;;;;;;;13.23;9.15;;;3.30;77.70;;;;;;4979651;28;20040;-65
2022/04/02 12:20:37;;;;;;;19.45;11.85;;;3.40;77.90;;;;;;4978833;28;20129;-64
2022/04/02 12:23:12;;;;;;;11.43;8.30;;;3.40;78.00;;;;;;4980245;28;20026;-63
2022/04/02 12:25:40;;;;;;;11.10;8.38;;;3.50;78.00;;;;;;4979192;28;20037;-64
2022/04/02 12:28:16;;;;;;;10.48;7.93;;;3.50;77.80;;;;;;4979093;28;20038;-64
2022/04/02 12:30:46;;;;;;;9.75;8.00;;;3.50;77.80;;;;;;4979474;28;20047;-64
2022/04/02 12:33:15;;;;;;;9.45;7.65;;;3.50;77.80;;;;;;4979115;28;20045;-64
2022/04/02 12:35:45;;;;;;;10.30;7.78;;;3.50;77.80;;;;;;4979185;28;20520;-66
2022/04/02 12:38:29;;;;;;;10.48;7.88;;;3.50;77.70;;;;;;4979450;28;20053;-65
2022/04/02 12:40:57;;;;;;;10.52;8.45;;;3.50;77.40;;;;;;4979204;28;20038;-64
2022/04/02 12:43:31;;;;;;;9.20;7.85;;;3.50;77.70;;;;;;4979663;28;20081;-65
2022/04/02 12:45:58;;;;;;;9.70;7.85;;;3.50;77.70;;;;;;4979348;28;20034;-65
2022/04/02 12:48:25;;;;;;;10.27;7.45;;;3.50;77.70;;;;;;4977988;28;20054;-65
2022/04/02 12:50:54;;;;;;;9.23;7.20;;;3.40;77.40;;;;;;4977183;28;20238;-65
2022/04/02 12:53:33;;;;;;;8.52;7.35;;;3.40;76.80;;;;;;4982824;28;20038;-65
2022/04/02 12:56:01;;;;;;;11.35;7.50;;;3.40;76.90;;;;;;4977539;28;20038;-64
2022/04/02 12:58:40;;;;;;;9.77;7.32;;;3.40;77.10;;;;;;4978118;28;20038;-65
2022/04/02 13:01:12;;;;;;;7.72;6.93;;;3.30;77.10;;;;;;4978467;28;20054;-64